createdAt,value
2023-06-20T00:00:56.149Z,23.88
2023-06-20T00:04:00.032Z,23.85
2023-06-20T00:07:03.903Z,23.97
2023-06-20T00:10:10.131Z,24.03
2023-06-20T00:13:13.968Z,23.94
2023-06-20T00:16:22.312Z,23.47
2023-06-20T00:19:26.188Z,23.84
2023-06-20T00:22:30.063Z,23.73
2023-06-20T00:25:33.724Z,23.78
2023-06-20T00:28:37.428Z,23.86
2023-06-20T00:31:42.667Z,23.76
2023-06-20T00:34:46.396Z,23.78
2023-06-20T00:37:51.678Z,23.85
2023-06-20T00:40:55.479Z,23.65
2023-06-20T00:43:59.335Z,23.52
2023-06-20T00:47:05.266Z,23.59
2023-06-20T00:50:10.222Z,23.60
2023-06-20T00:53:14.160Z,23.61
2023-06-20T00:56:18.097Z,23.41
2023-06-20T00:59:22.773Z,23.33
2023-06-20T01:02:28.239Z,23.20
2023-06-20T01:05:32.774Z,23.44
2023-06-20T01:08:42.577Z,23.62
2023-06-20T01:11:53.027Z,23.52
2023-06-20T01:15:04.706Z,23.44
2023-06-20T01:18:16.984Z,23.46
2023-06-20T01:21:23.966Z,23.17
2023-06-20T01:24:38.581Z,23.07
2023-06-20T01:27:49.042Z,22.96
2023-06-20T01:30:58.707Z,22.95
2023-06-20T01:34:09.532Z,22.89
2023-06-20T01:37:17.655Z,22.83
2023-06-20T01:40:24.861Z,22.72
2023-06-20T01:43:32.142Z,22.76
2023-06-20T01:46:36.580Z,22.38
2023-06-20T01:49:43.902Z,22.55
2023-06-20T01:52:51.129Z,22.65
2023-06-20T01:55:57.788Z,22.66
2023-06-20T01:59:03.611Z,22.54
2023-06-20T02:02:09.261Z,22.50
2023-06-20T02:05:14.783Z,22.60
2023-06-20T02:08:20.680Z,22.55
2023-06-20T02:11:26.068Z,22.34
2023-06-20T02:14:30.379Z,22.68
2023-06-20T02:17:35.853Z,22.57
2023-06-20T02:20:39.666Z,22.58
2023-06-20T02:23:48.792Z,22.58
2023-06-20T02:26:55.647Z,22.48
2023-06-20T02:30:00.980Z,22.59
2023-06-20T02:33:07.707Z,22.46
2023-06-20T02:36:12.709Z,22.50
2023-06-20T02:39:16.852Z,22.35
2023-06-20T02:42:22.333Z,22.60
2023-06-20T02:45:26.474Z,22.76
2023-06-20T02:48:37.165Z,22.83
2023-06-20T02:51:52.904Z,22.81
2023-06-20T02:55:06.737Z,22.66
2023-06-20T02:58:15.125Z,22.63
2023-06-20T03:01:25.667Z,22.69
2023-06-20T03:04:33.763Z,22.74
2023-06-20T03:07:38.571Z,22.73
2023-06-20T03:10:44.227Z,22.89
2023-06-20T03:13:50.437Z,23.09
2023-06-20T03:16:54.444Z,23.06
2023-06-20T03:19:58.803Z,23.27
2023-06-20T03:23:04.143Z,23.54
2023-06-20T03:26:09.430Z,23.51
2023-06-20T03:29:14.818Z,23.63
2023-06-20T03:32:19.134Z,23.54
2023-06-20T03:35:23.138Z,23.30
2023-06-20T03:38:27.121Z,23.37
2023-06-20T03:41:31.127Z,23.58
2023-06-20T03:44:40.297Z,23.62
2023-06-20T03:47:44.222Z,23.62
2023-06-20T03:50:48.438Z,23.84
2023-06-20T03:53:52.826Z,24.02
2023-06-20T03:56:56.638Z,23.96
2023-06-20T04:00:02.069Z,24.27
2023-06-20T04:03:07.398Z,24.10
2023-06-20T04:06:11.331Z,24.17
2023-06-20T04:09:15.176Z,24.32
2023-06-20T04:12:19.009Z,24.40
2023-06-20T04:15:24.620Z,24.72
2023-06-20T04:18:30.913Z,24.85
2023-06-20T04:21:35.392Z,24.89
2023-06-20T04:24:39.139Z,24.83
2023-06-20T04:27:44.104Z,24.66
2023-06-20T04:30:52.167Z,24.83
2023-06-20T04:33:58.515Z,25.06
2023-06-20T04:37:03.765Z,25.11
2023-06-20T04:40:10.282Z,25.09
2023-06-20T04:43:14.797Z,25.21
2023-06-20T04:46:20.507Z,25.62
2023-06-20T04:49:25.032Z,25.56
2023-06-20T04:52:29.113Z,25.79
2023-06-20T04:55:32.887Z,26.18
2023-06-20T04:58:38.317Z,25.95
2023-06-20T05:01:43.702Z,26.04
2023-06-20T05:04:47.686Z,26.25
2023-06-20T05:07:51.567Z,26.62
2023-06-20T05:10:55.450Z,26.89
2023-06-20T05:13:59.233Z,26.87
2023-06-20T05:17:05.114Z,26.99
2023-06-20T05:20:10.429Z,27.09
2023-06-20T05:23:14.355Z,27.14
2023-06-20T05:26:18.263Z,27.45
2023-06-20T05:29:22.237Z,27.44
2023-06-20T05:32:27.840Z,27.19
2023-06-20T05:35:31.987Z,27.70
2023-06-20T05:38:38.316Z,28.07
2023-06-20T05:41:43.482Z,27.71
2023-06-20T05:44:47.377Z,27.76
2023-06-20T05:47:52.765Z,27.65
2023-06-20T05:50:56.545Z,27.83
2023-06-20T05:54:00.579Z,28.14
2023-06-20T05:57:04.597Z,27.90
2023-06-20T06:00:14.267Z,27.91
2023-06-20T06:03:25.597Z,28.23
2023-06-20T06:06:29.475Z,28.30
2023-06-20T06:09:33.307Z,28.29
2023-06-20T06:12:37.882Z,28.32
2023-06-20T06:15:50.125Z,28.50
2023-06-20T06:19:04.524Z,28.51
2023-06-20T06:22:08.357Z,28.24
2023-06-20T06:25:12.343Z,28.51
2023-06-20T06:28:16.671Z,28.69
2023-06-20T06:31:27.917Z,29.19
2023-06-20T06:34:33.552Z,29.38
2023-06-20T06:37:37.821Z,29.02
2023-06-20T06:40:41.833Z,29.17
2023-06-20T06:43:46.003Z,29.33
2023-06-20T06:46:49.963Z,29.38
2023-06-20T06:49:55.285Z,29.51
2023-06-20T06:52:59.311Z,29.82
2023-06-20T06:56:03.118Z,29.97
2023-06-20T06:59:06.983Z,29.66
2023-06-20T07:02:10.897Z,29.87
2023-06-20T07:05:16.262Z,29.87
2023-06-20T07:08:20.340Z,29.68
2023-06-20T07:11:25.948Z,29.70
2023-06-20T07:14:30.163Z,30.28
2023-06-20T07:17:34.055Z,30.37
2023-06-20T07:20:39.280Z,30.65
2023-06-20T07:23:43.133Z,31.00
2023-06-20T07:26:47.022Z,30.84
2023-06-20T07:29:50.840Z,31.08
2023-06-20T07:32:54.740Z,31.15
2023-06-20T07:36:01.542Z,30.91
2023-06-20T07:39:05.473Z,30.88
2023-06-20T07:42:10.125Z,30.95
2023-06-20T07:45:13.964Z,31.24
2023-06-20T07:48:17.814Z,31.28
2023-06-20T07:51:23.712Z,31.39
2023-06-20T07:54:28.009Z,32.14
2023-06-20T07:57:32.015Z,32.16
2023-06-20T08:00:35.840Z,32.08
2023-06-20T08:03:39.848Z,31.71
2023-06-20T08:06:45.304Z,31.47
2023-06-20T08:09:49.253Z,31.19
2023-06-20T08:12:53.389Z,30.60
2023-06-20T08:15:57.152Z,30.87
2023-06-20T08:19:01.031Z,31.03
2023-06-20T08:22:06.995Z,30.56
2023-06-20T08:25:11.648Z,30.64
2023-06-20T08:28:15.795Z,30.75
2023-06-20T08:31:19.815Z,31.14
2023-06-20T08:34:23.651Z,32.12
2023-06-20T08:37:28.933Z,32.29
2023-06-20T08:40:33.267Z,32.10
2023-06-20T08:43:37.359Z,32.10
2023-06-20T08:46:41.328Z,32.53
2023-06-20T08:49:45.736Z,33.00
2023-06-20T08:52:55.458Z,33.01
2023-06-20T08:56:00.075Z,32.98
2023-06-20T08:59:03.898Z,33.52
2023-06-20T09:02:11.490Z,33.61
2023-06-20T09:05:15.370Z,33.03
2023-06-20T09:08:20.737Z,33.92
2023-06-20T09:11:27.908Z,33.84
2023-06-20T09:14:32.488Z,33.41
2023-06-20T09:17:36.444Z,33.37
2023-06-20T09:20:41.796Z,33.28
2023-06-20T09:23:47.171Z,33.50
2023-06-20T09:26:51.087Z,33.70
2023-06-20T09:29:57.890Z,34.35
2023-06-20T09:33:06.134Z,34.50
2023-06-20T09:36:14.325Z,34.60
2023-06-20T09:39:22.045Z,34.46
2023-06-20T09:42:26.367Z,34.40
2023-06-20T09:45:30.297Z,33.91
2023-06-20T09:48:36.867Z,33.56
2023-06-20T09:51:45.556Z,32.88
2023-06-20T09:54:55.965Z,32.62
2023-06-20T09:58:01.330Z,32.25
2023-06-20T10:01:06.828Z,32.25
2023-06-20T10:04:10.957Z,32.68
2023-06-20T10:07:16.463Z,32.90
2023-06-20T10:10:21.810Z,33.25
2023-06-20T10:13:26.016Z,33.65
2023-06-20T10:16:31.010Z,33.67
2023-06-20T10:19:49.127Z,34.08
2023-06-20T10:22:53.058Z,34.41
2023-06-20T10:25:59.708Z,34.21
2023-06-20T10:29:05.337Z,34.57
2023-06-20T10:32:10.890Z,34.69
2023-06-20T10:35:17.796Z,34.35
2023-06-20T10:38:21.811Z,33.87
2023-06-20T10:41:28.116Z,32.98
2023-06-20T10:44:32.011Z,32.63
2023-06-20T10:47:37.142Z,32.36
2023-06-20T10:50:40.980Z,32.88
2023-06-20T10:53:44.806Z,32.57
2023-06-20T10:56:50.278Z,32.35
2023-06-20T10:59:54.149Z,32.02
2023-06-20T11:02:58.807Z,32.21
2023-06-20T11:06:03.418Z,32.90
2023-06-20T11:09:07.735Z,33.63
2023-06-20T11:12:13.191Z,34.28
2023-06-20T11:15:25.345Z,34.54
2023-06-20T11:18:29.310Z,34.71
2023-06-20T11:21:33.410Z,35.04
2023-06-20T11:24:38.040Z,34.78
2023-06-20T11:27:44.889Z,35.10
2023-06-20T11:30:49.075Z,34.36
2023-06-20T11:34:04.320Z,34.28
2023-06-20T11:37:08.548Z,33.99
2023-06-20T11:40:14.965Z,33.56
2023-06-20T11:43:25.352Z,33.20
2023-06-20T11:46:29.916Z,34.08
2023-06-20T11:49:34.569Z,34.48
2023-06-20T11:52:42.609Z,34.66
2023-06-20T11:55:50.632Z,35.03
2023-06-20T11:58:56.205Z,34.90
2023-06-20T12:02:00.216Z,35.19
2023-06-20T12:05:06.014Z,35.03
2023-06-20T12:08:10.108Z,34.42
2023-06-20T12:11:15.674Z,34.14
2023-06-20T12:14:21.636Z,33.76
2023-06-20T12:17:26.057Z,34.11
2023-06-20T12:20:36.915Z,34.03
2023-06-20T12:23:42.426Z,34.16
2023-06-20T12:26:48.593Z,34.76
2023-06-20T12:29:53.923Z,34.29
2023-06-20T12:32:59.049Z,34.17
2023-06-20T12:36:03.044Z,34.35
2023-06-20T12:39:07.262Z,34.24
2023-06-20T12:42:13.985Z,33.31
2023-06-20T12:45:19.523Z,33.57
2023-06-20T12:48:24.886Z,33.33
2023-06-20T12:51:29.082Z,33.00
2023-06-20T12:54:32.986Z,34.03
2023-06-20T12:57:36.787Z,34.11
2023-06-20T13:00:43.093Z,33.94
2023-06-20T13:03:47.178Z,33.49
2023-06-20T13:06:52.918Z,33.31
2023-06-20T13:09:56.740Z,32.92
2023-06-20T13:13:00.561Z,32.78
2023-06-20T13:16:05.934Z,32.52
2023-06-20T13:19:09.872Z,32.50
2023-06-20T13:22:14.127Z,33.65
2023-06-20T13:25:18.220Z,33.57
2023-06-20T13:28:22.947Z,33.51
2023-06-20T13:31:28.558Z,33.01
2023-06-20T13:34:33.017Z,32.73
2023-06-20T13:37:38.528Z,33.53
2023-06-20T13:40:42.431Z,33.92
2023-06-20T13:43:47.214Z,34.10
2023-06-20T13:46:52.929Z,33.79
2023-06-20T13:49:56.773Z,34.19
2023-06-20T13:53:00.565Z,34.35
2023-06-20T13:56:04.387Z,34.79
2023-06-20T13:59:08.264Z,34.81
2023-06-20T14:02:13.717Z,34.59
2023-06-20T14:05:20.814Z,32.99
2023-06-20T14:08:25.350Z,32.74
2023-06-20T14:11:29.961Z,31.82
2023-06-20T14:14:33.848Z,31.27
2023-06-20T14:17:39.650Z,30.27
2023-06-20T14:20:43.709Z,29.87
2023-06-20T14:23:48.203Z,29.57
2023-06-20T14:26:52.130Z,29.75
2023-06-20T14:29:56.773Z,29.39
2023-06-20T14:33:03.021Z,29.47
2023-06-20T14:36:07.239Z,30.01
2023-06-20T14:39:12.066Z,29.98
2023-06-20T14:42:17.177Z,30.38
2023-06-20T14:45:22.282Z,30.29
2023-06-20T14:48:27.816Z,30.56
2023-06-20T14:51:31.699Z,30.96
2023-06-20T14:54:35.598Z,30.55
2023-06-20T14:57:39.439Z,30.25
2023-06-20T15:00:43.218Z,29.70
2023-06-20T15:03:48.952Z,30.41
2023-06-20T15:06:52.950Z,30.05
2023-06-20T15:09:56.819Z,30.32
2023-06-20T15:13:00.688Z,30.32
2023-06-20T15:16:04.720Z,30.75
2023-06-20T15:19:10.075Z,30.19
2023-06-20T15:22:14.127Z,30.31
2023-06-20T15:25:18.289Z,30.08
2023-06-20T15:28:22.212Z,30.20
2023-06-20T15:31:26.062Z,30.00
2023-06-20T15:34:33.026Z,30.20
2023-06-20T15:37:36.885Z,30.45
2023-06-20T15:40:40.836Z,29.87
2023-06-20T15:43:46.020Z,29.97
2023-06-20T15:46:53.949Z,29.90
2023-06-20T15:49:59.866Z,29.67
2023-06-20T15:53:03.781Z,29.83
2023-06-20T15:56:07.630Z,29.38
2023-06-20T15:59:11.432Z,29.50
2023-06-20T16:02:20.086Z,29.02
2023-06-20T16:05:25.578Z,29.54
2023-06-20T16:08:29.405Z,29.22
2023-06-20T16:11:33.307Z,29.68
2023-06-20T16:14:37.566Z,29.50
2023-06-20T16:17:41.667Z,29.69
2023-06-20T16:20:49.131Z,29.87
2023-06-20T16:23:53.068Z,29.17
2023-06-20T16:26:57.533Z,29.34
2023-06-20T16:30:02.421Z,29.09
2023-06-20T16:33:08.118Z,29.22
2023-06-20T16:36:13.759Z,29.23
2023-06-20T16:39:17.708Z,29.19
2023-06-20T16:42:21.612Z,28.74
2023-06-20T16:45:25.399Z,28.87
2023-06-20T16:48:29.223Z,28.79
2023-06-20T16:51:35.790Z,28.83
2023-06-20T16:54:39.701Z,28.76
2023-06-20T16:57:43.538Z,28.96
2023-06-20T17:00:47.456Z,29.02
2023-06-20T17:03:51.514Z,28.59
2023-06-20T17:06:56.777Z,28.64
2023-06-20T17:10:00.605Z,28.19
2023-06-20T17:13:04.695Z,27.92
2023-06-20T17:16:08.466Z,27.90
2023-06-20T17:19:12.338Z,27.92
2023-06-20T17:22:17.904Z,27.96
2023-06-20T17:25:22.586Z,27.82
2023-06-20T17:28:27.463Z,28.00
2023-06-20T17:31:31.446Z,27.86
2023-06-20T17:34:35.493Z,27.82
2023-06-20T17:37:40.994Z,27.71
2023-06-20T17:40:45.004Z,27.67
2023-06-20T17:43:50.289Z,27.59
2023-06-20T17:46:57.115Z,27.52
2023-06-20T17:50:01.330Z,27.37
2023-06-20T17:53:06.766Z,27.43
2023-06-20T17:56:11.435Z,27.33
2023-06-20T17:59:15.466Z,27.23
2023-06-20T18:02:19.431Z,27.27
2023-06-20T18:05:23.291Z,27.53
2023-06-20T18:08:28.591Z,27.27
2023-06-20T18:11:32.574Z,27.28
2023-06-20T18:14:37.812Z,27.18
2023-06-20T18:17:41.965Z,27.03
2023-06-20T18:20:45.827Z,27.04
2023-06-20T18:23:51.105Z,27.04
2023-06-20T18:26:54.986Z,26.99
2023-06-20T18:29:58.890Z,27.06
2023-06-20T18:33:02.858Z,27.11
2023-06-20T18:36:07.056Z,27.25
2023-06-20T18:39:12.482Z,26.97
2023-06-20T18:42:17.027Z,27.16
2023-06-20T18:45:20.973Z,26.86
2023-06-20T18:48:24.886Z,26.97
2023-06-20T18:51:28.748Z,26.97
2023-06-20T18:54:34.166Z,27.05
2023-06-20T18:57:38.084Z,26.79
2023-06-20T19:00:42.356Z,26.98
2023-06-20T19:03:46.911Z,26.85
2023-06-20T19:06:50.876Z,26.82
2023-06-20T19:09:56.115Z,26.83
2023-06-20T19:13:00.074Z,26.69
2023-06-20T19:16:03.884Z,26.62
2023-06-20T19:19:07.881Z,26.43
2023-06-20T19:22:11.766Z,26.53
2023-06-20T19:25:17.096Z,26.44
2023-06-20T19:28:20.986Z,26.50
2023-06-20T19:31:24.968Z,26.67
2023-06-20T19:34:28.929Z,26.58
2023-06-20T19:37:32.857Z,26.82
2023-06-20T19:40:38.138Z,26.62
2023-06-20T19:43:42.003Z,26.70
2023-06-20T19:46:46.340Z,26.87
2023-06-20T19:49:50.227Z,26.89
2023-06-20T19:52:54.129Z,26.83
2023-06-20T19:55:59.566Z,26.78
2023-06-20T19:59:03.450Z,26.40
2023-06-20T20:02:10.717Z,26.45
2023-06-20T20:05:14.547Z,26.38
2023-06-20T20:08:19.118Z,26.50
2023-06-20T20:11:24.440Z,26.36
2023-06-20T20:14:28.280Z,26.40
2023-06-20T20:17:32.133Z,26.54
2023-06-20T20:20:36.095Z,26.66
2023-06-20T20:23:44.115Z,26.53
2023-06-20T20:26:52.307Z,26.66
2023-06-20T20:29:56.186Z,26.66
2023-06-20T20:33:00.515Z,26.68
2023-06-20T20:36:04.481Z,26.73
2023-06-20T20:39:08.570Z,26.57
2023-06-20T20:42:14.220Z,26.73
2023-06-20T20:45:19.993Z,26.59
2023-06-20T20:48:24.768Z,26.21
2023-06-20T20:51:29.137Z,25.93
2023-06-20T20:54:35.152Z,25.82
2023-06-20T20:57:41.934Z,25.56
2023-06-20T21:00:47.668Z,25.40
2023-06-20T21:03:51.867Z,25.12
2023-06-20T21:06:55.772Z,25.72
2023-06-20T21:09:59.584Z,25.51
2023-06-20T21:13:04.945Z,25.79
2023-06-20T21:16:12.990Z,25.82
2023-06-20T21:19:16.843Z,25.43
2023-06-20T21:22:21.297Z,25.31
2023-06-20T21:25:25.579Z,24.97
2023-06-20T21:28:30.896Z,25.10
2023-06-20T21:31:34.870Z,24.71
2023-06-20T21:34:38.788Z,24.57
2023-06-20T21:37:42.649Z,24.75
2023-06-20T21:40:47.371Z,24.92
2023-06-20T21:43:52.724Z,24.74
2023-06-20T21:46:56.670Z,24.78
2023-06-20T21:50:00.586Z,24.98
2023-06-20T21:53:04.350Z,25.15
2023-06-20T21:56:08.639Z,25.05
2023-06-20T21:59:14.261Z,25.22
2023-06-20T22:02:18.138Z,24.78
2023-06-20T22:05:21.978Z,24.80
2023-06-20T22:08:28.033Z,25.17
2023-06-20T22:11:31.883Z,25.31
2023-06-20T22:14:37.144Z,25.34
2023-06-20T22:17:41.241Z,25.40
2023-06-20T22:20:45.330Z,24.93
2023-06-20T22:23:49.434Z,25.23
2023-06-20T22:26:53.387Z,25.31
2023-06-20T22:29:58.742Z,25.16
2023-06-20T22:33:04.042Z,24.99
2023-06-20T22:36:08.118Z,25.00
2023-06-20T22:39:11.933Z,24.80
2023-06-20T22:42:15.837Z,24.86
2023-06-20T22:45:21.204Z,24.62
2023-06-20T22:48:25.082Z,24.79
2023-06-20T22:51:32.224Z,24.55
2023-06-20T22:54:36.272Z,24.60
2023-06-20T22:57:40.045Z,24.56
2023-06-20T23:00:45.406Z,24.47
2023-06-20T23:03:49.665Z,24.50
2023-06-20T23:06:53.605Z,24.51
2023-06-20T23:09:57.636Z,24.42
2023-06-20T23:13:01.477Z,24.29
2023-06-20T23:16:07.107Z,24.29
2023-06-20T23:19:11.065Z,24.18
2023-06-20T23:22:15.605Z,24.32
2023-06-20T23:25:19.633Z,24.23
2023-06-20T23:28:24.266Z,24.33
2023-06-20T23:31:33.383Z,24.36
2023-06-20T23:34:37.195Z,24.25
2023-06-20T23:37:41.381Z,24.30
2023-06-20T23:40:45.379Z,24.25
2023-06-20T23:43:49.290Z,24.14
2023-06-20T23:46:54.797Z,24.26
2023-06-20T23:49:58.654Z,24.28
2023-06-20T23:53:02.592Z,24.25
2023-06-20T23:56:06.640Z,24.08
2023-06-20T23:59:12.090Z,23.88
